This is the latest recevied weather packets stored in our database for station/object OE3XOC-11. If no packets are shown the sender has not sent any weather packets the latest 1 day(s).
| Time | Temp. | Humidity | Pressure | Rain* | Wind** | Luminosity | Snow |
|---|---|---|---|---|---|---|---|
| 1778085794 | 25° C | 33% | 949.3 hPa | - | - | - | - |
| 1778082494 | 27.78° C | 24% | 949.7 hPa | - | - | - | - |
| 1778066894 | 23.89° C | 35% | 951.4 hPa | - | - | - | - |
| 1778065994 | 23.33° C | 37% | 951.4 hPa | - | - | - | - |
| 1778065694 | 23.33° C | 37% | 951.5 hPa | - | - | - | - |
| 1778065094 | 23.33° C | 37% | 951.7 hPa | - | - | - | - |
| 1778064494 | 23.89° C | 38% | 951.8 hPa | - | - | - | - |
| 1778064194 | 23.89° C | 38% | 951.9 hPa | - | - | - | - |
| 1778062694 | 23.33° C | 38% | 952.5 hPa | - | - | - | - |
| 1778062394 | 23.33° C | 38% | 952.4 hPa | - | - | - | - |
| 1778061794 | 23.33° C | 37% | 952.5 hPa | - | - | - | - |
| 1778061494 | 23.89° C | 36% | 952.5 hPa | - | - | - | - |
| 1778061194 | 23.89° C | 37% | 952.7 hPa | - | - | - | - |
| 1778060294 | 23.89° C | 36% | 952.8 hPa | - | - | - | - |
| 1778059694 | 23.89° C | 35% | 953 hPa | - | - | - | - |
| 1778059394 | 24.44° C | 35% | 953.2 hPa | - | - | - | - |
| 1778059094 | 23.33° C | 36% | 953.2 hPa | - | - | - | - |
| 1778058794 | 23.33° C | 37% | 953.1 hPa | - | - | - | - |
| 1778057894 | 23.89° C | 36% | 953.5 hPa | - | - | - | - |
| 1778057594 | 24.44° C | 35% | 953.5 hPa | - | - | - | - |
| 1778057294 | 23.89° C | 35% | 953.3 hPa | - | - | - | - |
| 1778056994 | 23.33° C | 37% | 953.3 hPa | - | - | - | - |
| 1778056694 | 23.33° C | 37% | 953.3 hPa | - | - | - | - |
| 1778056394 | 23.33° C | 36% | 953.4 hPa | - | - | - | - |
| 1778056094 | 24.44° C | 37% | 953.5 hPa | - | - | - | - |
* Rain since midnight (hover to see other rain measurements)
** Current wind speed in m/s (hover to see current wind gust speed)